7VA4 weather

Bermuda Hundred Heliport
Hopewell, Virginia, United States

Public forecast

Using degrees Fahrenheit for public forecast. Weather courtesy of forecast.io.

METAR (pilot weather report)

Closest report is Richmond International Airport, 12.8 nm (23.7 km) N. Retrieved 2019/01/18 20:54 UTC (52 minutes ago):

KRIC 182054Z 34007KT 10SM FEW035 SCT300 11/03 A3008 RMK AO2 SLP193 T01060028 55000

TAF (pilot weather forecast)

Closest forecast is Richmond International Airport, 12.8 nm (23.7 km) N. Retrieved 2019/01/18 18:24 UTC (3 hours ago):

TAF KRIC 181722Z 1818/1918 32005KT P6SM FEW010 FM190500 00000KT P6SM BKN020 FM190900 00000KT P6SM BKN015 FM191500 10006KT 5SM BR OVC015